Time;durP1;ratioP1;P1;durP2;ratioP2;P2;SDS_P1;SDS_P2;PMS_P1;PMS_P2;Temp;Humidity;BMP_temperature;BMP_pressure;BME280_temperature;BME280_humidity;BME280_pressure;Samples;Min_cycle;Max_cycle;Signal;HPM_P1;HPM_P2
2023/05/07 00:00:03;;;;;;;;;4.00;2.67;;;;;17.85;67.01;100651.38;5075101;27;45458;-75
2023/05/07 00:02:29;;;;;;;;;3.00;2.00;;;;;17.76;67.37;100641.63;5076651;27;45450;-74
2023/05/07 00:04:55;;;;;;;;;3.33;2.00;;;;;17.82;67.48;100653.97;5074789;28;45543;-74
2023/05/07 00:07:20;;;;;;;;;1.67;1.67;;;;;17.78;67.81;100652.19;5076175;27;45554;-72
2023/05/07 00:09:46;;;;;;;;;2.33;2.33;;;;;17.65;68.50;100643.38;5075669;27;45556;-74
2023/05/07 00:12:11;;;;;;;;;3.00;3.00;;;;;17.74;68.31;100650.44;5075734;27;45467;-75
2023/05/07 00:14:37;;;;;;;;;3.33;3.00;;;;;17.69;68.37;100637.22;5076225;28;45627;-75
2023/05/07 00:17:02;;;;;;;;;4.00;3.67;;;;;17.66;68.63;100639.84;5074233;28;45759;-75
2023/05/07 00:19:28;;;;;;;;;2.67;2.33;;;;;17.66;68.54;100627.50;5076061;28;45551;-75
2023/05/07 00:21:54;;;;;;;;;3.00;3.00;;;;;17.65;68.18;100617.84;5076544;27;45459;-74
2023/05/07 00:24:20;;;;;;;;;3.00;3.00;;;;;17.62;68.03;100607.25;5075474;27;46428;-75
2023/05/07 00:26:45;;;;;;;;;3.00;3.00;;;;;17.39;68.73;100566.69;5075351;27;45476;-73
2023/05/07 00:29:11;;;;;;;;;3.00;3.00;;;;;17.62;68.43;100606.38;5075542;27;45397;-75
2023/05/07 00:31:36;;;;;;;;;3.33;3.00;;;;;17.59;69.04;100607.25;5075243;27;45474;-75
2023/05/07 00:34:02;;;;;;;;;3.67;3.67;;;;;17.53;68.97;100609.88;5061030;28;46864;-75
2023/05/07 00:36:28;;;;;;;;;5.00;4.67;;;;;17.39;69.70;100599.28;5075915;27;45400;-75
2023/05/07 00:38:55;;;;;;;;;4.00;3.00;;;;;17.49;69.27;100629.25;5076607;27;45611;-75
2023/05/07 00:41:21;;;;;;;;;4.00;4.00;;;;;17.42;69.70;100608.97;5077104;27;45537;-74
2023/05/07 00:43:47;;;;;;;;;4.67;4.33;;;;;17.37;69.85;100589.56;5076423;28;48298;-75
2023/05/07 00:46:13;;;;;;;;;4.00;3.00;;;;;17.58;69.35;100621.31;5078247;28;45470;-74
2023/05/07 00:48:39;;;;;;;;;3.00;3.00;;;;;17.44;69.75;100592.25;5061934;28;45378;-76
2023/05/07 00:51:05;;;;;;;;;4.00;4.00;;;;;17.57;69.48;100619.59;5092631;27;45614;-76
2023/05/07 00:53:30;;;;;;;;;4.67;3.00;;;;;17.40;69.26;100586.97;5077748;28;45483;-75
2023/05/07 00:55:56;;;;;;;;;4.00;3.00;;;;;17.56;69.36;100614.28;5076817;28;45397;-75
2023/05/07 00:58:23;;;;;;;;;3.33;3.00;;;;;17.63;69.08;100616.94;5077464;28;45284;-75
2023/05/07 01:00:49;;;;;;;;;1.33;1.33;;;;;17.60;69.16;100609.00;5078524;28;45547;-75
2023/05/07 01:03:15;;;;;;;;;4.00;4.00;;;;;17.55;68.76;100596.66;5077351;28;45161;-75
2023/05/07 01:05:42;;;;;;;;;4.00;3.00;;;;;17.54;69.40;100606.34;5076906;28;45551;-75
2023/05/07 01:08:08;;;;;;;;;2.00;2.00;;;;;17.53;69.48;100601.97;5076725;27;45586;-75
2023/05/07 01:10:34;;;;;;;;;5.00;4.00;;;;;17.51;69.91;100595.81;5077196;27;45448;-75
2023/05/07 01:13:01;;;;;;;;;3.00;3.00;;;;;17.48;69.67;100595.78;5076492;27;46368;-75
2023/05/07 01:15:26;;;;;;;;;4.33;3.00;;;;;17.37;70.25;100592.22;5076503;28;45413;-75
2023/05/07 01:17:55;;;;;;;;;3.00;3.00;;;;;17.42;69.18;100588.72;5075439;28;45458;-75
2023/05/07 01:20:23;;;;;;;;;3.00;3.00;;;;;17.46;69.47;100586.97;5077022;28;45559;-75
2023/05/07 01:22:49;;;;;;;;;4.00;4.00;;;;;17.45;69.69;100579.94;5077391;28;46184;-75
2023/05/07 01:25:16;;;;;;;;;3.67;3.67;;;;;17.40;69.15;100573.75;5077574;27;45364;-75
2023/05/07 01:27:41;;;;;;;;;4.00;4.00;;;;;17.34;69.72;100585.19;5077408;28;45311;-75
2023/05/07 01:30:07;;;;;;;;;3.00;3.00;;;;;17.35;69.72;100588.69;5077597;28;45404;-75
2023/05/07 01:32:41;;;;;;;;;4.33;4.00;;;;;17.30;69.76;100571.06;5075767;28;47993;-74
2023/05/07 01:35:10;;;;;;;;;3.00;3.00;;;;;17.34;69.42;100576.38;5076694;28;45490;-74
2023/05/07 01:37:37;;;;;;;;;3.00;3.00;;;;;17.35;69.31;100570.22;5077799;28;45448;-76
2023/05/07 01:40:04;;;;;;;;;2.00;2.00;;;;;17.42;68.94;100575.50;5078688;28;45389;-73
2023/05/07 01:42:30;;;;;;;;;3.00;3.00;;;;;17.35;68.91;100560.56;5078291;28;45491;-73
2023/05/07 01:44:56;;;;;;;;;5.00;4.00;;;;;17.10;69.80;100544.63;5079984;28;45465;-73
2023/05/07 01:47:26;;;;;;;;;4.00;4.00;;;;;17.06;69.48;100544.63;5078427;28;45437;-74
2023/05/07 01:49:52;;;;;;;;;4.00;3.00;;;;;17.14;69.37;100565.75;5078799;27;45407;-73
2023/05/07 01:52:18;;;;;;;;;4.00;4.00;;;;;17.08;69.96;100564.84;5078581;28;45203;-74
2023/05/07 01:54:43;;;;;;;;;2.00;2.00;;;;;17.01;69.27;100543.72;5076350;28;45511;-74
2023/05/07 01:57:09;;;;;;;;;3.00;3.00;;;;;17.11;69.75;100550.81;5076843;28;45492;-74
2023/05/07 01:59:35;;;;;;;;;4.33;4.00;;;;;17.12;70.07;100562.25;5077895;28;45680;-74
2023/05/07 02:02:00;;;;;;;;;4.00;3.33;;;;;17.11;70.11;100558.72;5076346;28;45483;-74
2023/05/07 02:04:26;;;;;;;;;4.33;4.33;;;;;17.05;70.52;100549.03;5078244;28;45405;-74
2023/05/07 02:06:52;;;;;;;;;3.00;3.00;;;;;17.10;70.69;100556.94;5077925;28;45452;-74
2023/05/07 02:09:18;;;;;;;;;4.00;4.00;;;;;17.07;70.60;100563.09;5081905;28;45314;-74
2023/05/07 02:11:44;;;;;;;;;4.00;4.00;;;;;17.06;71.33;100577.16;5081840;28;46106;-73
2023/05/07 02:14:10;;;;;;;;;4.00;3.00;;;;;17.02;71.08;100564.84;5080613;28;45454;-74
2023/05/07 02:16:35;;;;;;;;;5.00;4.00;;;;;17.00;71.01;100560.44;5079587;28;45710;-74
2023/05/07 02:19:01;;;;;;;;;2.50;2.50;;;;;17.00;70.76;100563.94;5080675;28;45529;-74
2023/05/07 02:21:26;;;;;;;;;2.67;2.67;;;;;17.01;70.42;100568.38;5113082;27;46618;-74
2023/05/07 02:23:52;;;;;;;;;3.50;3.50;;;;;17.09;70.28;100581.59;5081328;28;45421;-73
2023/05/07 02:26:18;;;;;;;;;2.67;2.67;;;;;17.03;70.18;100571.88;5080358;28;45334;-74
2023/05/07 02:28:44;;;;;;;;;2.25;2.25;;;;;17.12;70.04;100575.44;5079695;28;45433;-73
2023/05/07 02:31:09;;;;;;;;;3.33;3.00;;;;;17.08;69.97;100575.41;5078549;28;45985;-74
2023/05/07 02:33:36;;;;;;;;;3.00;3.00;;;;;16.98;70.68;100572.75;5078572;28;45468;-74
2023/05/07 02:36:11;;;;;;;;;4.00;3.00;;;;;17.06;70.72;100587.72;5077681;28;45556;-73
2023/05/07 02:38:37;;;;;;;;;4.25;4.00;;;;;17.03;70.44;100570.97;5078930;28;45957;-74
2023/05/07 02:41:02;;;;;;;;;4.00;3.00;;;;;17.08;70.04;100579.81;5077853;27;45943;-73
2023/05/07 02:43:28;;;;;;;;;4.00;3.00;;;;;17.13;70.44;100588.66;5078083;28;45406;-73
2023/05/07 02:46:04;;;;;;;;;3.00;3.00;;;;;16.99;70.73;100583.31;5077284;28;45298;-73
2023/05/07 02:48:29;;;;;;;;;3.00;3.00;;;;;17.00;70.21;100577.13;5078490;28;45439;-73
2023/05/07 02:50:55;;;;;;;;;4.00;3.00;;;;;17.14;70.30;100594.78;5078658;27;45452;-74
2023/05/07 02:53:20;;;;;;;;;4.00;3.67;;;;;17.13;70.24;100578.09;5078502;28;45435;-73
2023/05/07 02:55:46;;;;;;;;;3.75;3.75;;;;;17.10;70.20;100578.94;5078818;28;45449;-73
2023/05/07 02:58:11;;;;;;;;;3.00;2.50;;;;;17.08;69.82;100579.81;5078726;27;45627;-73
2023/05/07 03:00:37;;;;;;;;;2.33;2.00;;;;;17.14;69.58;100587.75;5076763;28;46817;-73
2023/05/07 03:03:03;;;;;;;;;3.00;3.00;;;;;17.20;69.37;100587.78;5069870;28;45506;-73
2023/05/07 03:05:29;;;;;;;;;2.67;2.00;;;;;17.11;69.09;100571.91;5069845;28;45532;-73
2023/05/07 03:07:54;;;;;;;;;2.00;2.00;;;;;17.13;68.87;100570.16;5078545;28;45457;-73
2023/05/07 03:10:20;;;;;;;;;2.00;2.00;;;;;17.09;69.05;100569.28;5075892;28;46721;-73
2023/05/07 03:12:45;;;;;;;;;2.67;2.00;;;;;17.03;69.28;100565.72;5077824;28;45422;-73
2023/05/07 03:15:14;;;;;;;;;3.33;2.00;;;;;16.98;69.38;100567.47;5077960;27;45552;-73
2023/05/07 03:17:40;;;;;;;;;3.00;2.00;;;;;16.50;69.06;100496.88;5077936;27;45539;-73
2023/05/07 03:20:06;;;;;;;;;4.00;3.67;;;;;16.95;69.26;100573.63;5075118;28;46831;-73
2023/05/07 03:22:32;;;;;;;;;2.33;2.33;;;;;16.96;69.61;100585.06;5077787;28;45404;-73
2023/05/07 03:24:58;;;;;;;;;2.00;2.00;;;;;16.53;69.15;100508.31;5078179;28;45493;-73
2023/05/07 03:27:23;;;;;;;;;2.00;2.00;;;;;16.90;69.16;100576.22;5077355;28;45374;-72
2023/05/07 03:29:49;;;;;;;;;3.00;3.00;;;;;16.89;69.74;100585.03;5077487;28;46435;-73
2023/05/07 03:32:15;;;;;;;;;3.50;3.25;;;;;16.93;69.91;100598.22;5077530;28;45543;-73
2023/05/07 03:34:40;;;;;;;;;3.00;3.00;;;;;16.85;70.31;100590.25;5077227;27;45320;-73
2023/05/07 03:37:06;;;;;;;;;3.00;3.00;;;;;16.78;70.67;100605.16;5078282;28;45417;-73
2023/05/07 03:39:32;;;;;;;;;1.33;1.00;;;;;16.65;70.86;100605.94;5077380;28;46298;-74
2023/05/07 03:41:58;;;;;;;;;4.00;3.75;;;;;16.59;70.96;100595.34;5077882;28;45610;-73
2023/05/07 03:44:23;;;;;;;;;3.50;3.00;;;;;16.44;71.41;100591.75;5078032;28;45534;-73
2023/05/07 03:46:49;;;;;;;;;4.00;3.25;;;;;16.63;71.19;100611.22;5077844;28;45379;-73
2023/05/07 03:49:14;;;;;;;;;3.00;3.00;;;;;16.58;71.08;100588.34;5076485;28;45635;-73
2023/05/07 03:51:40;;;;;;;;;2.67;2.67;;;;;16.70;70.53;100612.13;5070053;28;45320;-73
2023/05/07 03:54:05;;;;;;;;;3.00;3.00;;;;;16.75;70.45;100605.16;5068129;28;45180;-73
2023/05/07 03:56:31;;;;;;;;;3.00;3.00;;;;;16.69;70.86;100602.44;5077964;28;45343;-73
2023/05/07 03:58:57;;;;;;;;;4.00;4.00;;;;;16.65;70.61;100606.84;5077224;27;46620;-73
2023/05/07 04:01:22;;;;;;;;;5.00;4.25;;;;;16.54;71.69;100603.25;5075755;28;45563;-73
2023/05/07 04:03:48;;;;;;;;;3.00;3.00;;;;;16.57;71.31;100612.94;5075953;28;45327;-73
2023/05/07 04:06:15;;;;;;;;;2.00;2.00;;;;;16.60;71.07;100626.16;5063042;28;45692;-73
2023/05/07 04:08:41;;;;;;;;;4.00;4.00;;;;;16.55;71.86;100617.31;5075253;28;45689;-73
2023/05/07 04:11:06;;;;;;;;;4.00;3.67;;;;;16.55;71.81;100614.66;5077183;28;45470;-73
2023/05/07 04:13:32;;;;;;;;;5.00;3.00;;;;;16.57;71.63;100612.94;5077328;28;45303;-73
2023/05/07 04:15:57;;;;;;;;;3.67;3.67;;;;;16.56;70.88;100605.91;5077163;28;45290;-73
2023/05/07 04:18:23;;;;;;;;;3.67;3.67;;;;;16.61;71.39;100614.72;5076363;28;45635;-73
2023/05/07 04:20:51;;;;;;;;;3.00;3.00;;;;;16.60;71.74;100615.59;5075307;28;45417;-73
2023/05/07 04:23:16;;;;;;;;;3.67;3.33;;;;;16.76;71.40;100641.19;5077136;27;45773;-73
2023/05/07 04:25:42;;;;;;;;;5.00;4.00;;;;;16.70;71.36;100634.13;5077469;28;45474;-73
2023/05/07 04:28:07;;;;;;;;;6.00;6.00;;;;;16.71;71.45;100640.25;5076312;28;46503;-73
2023/05/07 04:30:33;;;;;;;;;2.00;2.00;;;;;16.72;71.31;100633.25;5075832;28;45351;-73
2023/05/07 04:32:59;;;;;;;;;5.00;3.33;;;;;16.72;71.38;100644.69;5076995;28;45488;-72
2023/05/07 04:35:24;;;;;;;;;3.67;3.00;;;;;16.65;71.08;100637.59;5077121;27;45388;-73
2023/05/07 04:37:50;;;;;;;;;3.00;2.00;;;;;16.67;70.84;100626.19;5072616;28;47780;-72
2023/05/07 04:40:15;;;;;;;;;3.00;2.00;;;;;16.75;70.78;100630.63;5077001;28;45475;-73
2023/05/07 04:42:41;;;;;;;;;3.00;3.00;;;;;16.68;70.77;100614.75;5076867;28;45436;-73
2023/05/07 04:45:08;;;;;;;;;3.00;2.33;;;;;16.93;70.45;100648.34;5077263;28;45492;-73
2023/05/07 04:47:34;;;;;;;;;3.50;2.00;;;;;16.72;70.53;100610.41;5076151;28;45615;-73
2023/05/07 04:49:59;;;;;;;;;3.00;2.00;;;;;16.84;70.28;100633.38;5076856;28;45276;-73
2023/05/07 04:52:25;;;;;;;;;3.33;3.33;;;;;16.86;69.97;100627.22;5076584;28;45502;-73
2023/05/07 04:54:50;;;;;;;;;3.00;3.00;;;;;16.87;69.77;100626.34;5076665;28;45222;-73
2023/05/07 04:57:17;;;;;;;;;4.00;3.67;;;;;16.94;70.32;100639.56;5074738;28;45602;-73
2023/05/07 04:59:43;;;;;;;;;3.00;3.00;;;;;16.87;70.26;100626.34;5055289;28;45600;-73
2023/05/07 05:02:10;;;;;;;;;4.00;3.00;;;;;16.86;70.29;100637.75;5072777;28;45460;-73
2023/05/07 05:04:36;;;;;;;;;2.67;2.67;;;;;16.84;69.83;100628.09;5076928;28;45528;-73
2023/05/07 05:07:03;;;;;;;;;4.00;2.67;;;;;16.94;70.17;100634.28;5077162;27;45364;-73
2023/05/07 05:09:29;;;;;;;;;2.00;2.00;;;;;16.86;69.67;100615.78;5077158;28;45492;-73
2023/05/07 05:11:55;;;;;;;;;3.67;2.67;;;;;16.92;69.57;100622.84;5076806;27;45492;-73
2023/05/07 05:14:20;;;;;;;;;3.00;2.33;;;;;16.86;69.79;100615.78;5083111;27;45624;-73
2023/05/07 05:16:46;;;;;;;;;6.00;4.00;;;;;16.89;69.63;100631.63;5074555;28;45617;-73
2023/05/07 05:19:11;;;;;;;;;3.67;3.00;;;;;16.93;69.72;100632.50;5070729;28;45790;-73
2023/05/07 05:21:37;;;;;;;;;1.67;1.33;;;;;16.63;69.68;100591.88;5073139;28;45480;-72
2023/05/07 05:24:03;;;;;;;;;3.00;3.00;;;;;16.92;69.95;100643.97;5075451;28;45306;-73
2023/05/07 05:26:29;;;;;;;;;3.67;3.00;;;;;17.02;69.79;100644.00;5074602;28;45676;-73
2023/05/07 05:28:54;;;;;;;;;3.00;2.67;;;;;17.21;69.68;100659.91;5073779;28;45556;-72
2023/05/07 05:31:20;;;;;;;;;4.00;3.00;;;;;17.18;69.69;100638.81;5074607;28;45347;-73
2023/05/07 05:33:45;;;;;;;;;4.00;4.00;;;;;17.25;69.24;100644.13;5090954;27;45688;-73
2023/05/07 05:36:12;;;;;;;;;3.67;3.00;;;;;17.37;69.17;100650.31;5074739;28;45467;-72
2023/05/07 05:38:39;;;;;;;;;2.00;2.00;;;;;17.56;68.52;100661.84;5073373;28;45397;-72
2023/05/07 05:41:04;;;;;;;;;3.00;3.00;;;;;17.53;68.25;100653.88;5074346;28;45516;-73
2023/05/07 05:43:30;;;;;;;;;4.00;2.33;;;;;17.55;68.17;100660.97;5077622;27;45571;-73
2023/05/07 05:45:56;;;;;;;;;2.00;2.00;;;;;17.62;68.21;100670.66;5077884;28;46675;-73
2023/05/07 05:48:22;;;;;;;;;3.67;3.33;;;;;17.59;68.16;100664.50;5077398;27;45318;-72
2023/05/07 05:50:48;;;;;;;;;5.00;3.25;;;;;17.64;67.67;100660.09;5078277;27;45471;-73
2023/05/07 05:53:13;;;;;;;;;4.00;3.00;;;;;17.74;67.80;100667.16;5078065;28;45569;-72
2023/05/07 05:55:39;;;;;;;;;4.00;3.00;;;;;17.81;67.68;100674.25;5076243;28;47542;-72
2023/05/07 05:58:05;;;;;;;;;5.67;3.00;;;;;17.85;68.02;100675.16;5078400;28;45452;-72
2023/05/07 06:00:32;;;;;;;;;4.00;3.33;;;;;18.00;67.25;100674.31;5078455;27;45539;-73
2023/05/07 06:02:57;;;;;;;;;3.00;3.00;;;;;18.37;66.25;100709.59;5077257;28;45376;-74
2023/05/07 06:05:23;;;;;;;;;3.00;2.67;;;;;18.37;65.79;100679.63;5077311;28;46427;-74
2023/05/07 06:07:48;;;;;;;;;3.00;3.00;;;;;18.37;66.05;100679.63;5078435;27;45392;-74
2023/05/07 06:10:14;;;;;;;;;2.67;2.67;;;;;18.67;65.70;100700.78;5086462;27;45434;-74
2023/05/07 06:12:40;;;;;;;;;4.00;3.33;;;;;18.81;65.51;100707.84;5077988;28;45296;-74
2023/05/07 06:15:06;;;;;;;;;4.00;3.33;;;;;19.05;64.31;100705.16;5076586;28;47000;-74
2023/05/07 06:17:31;;;;;;;;;2.00;2.00;;;;;19.44;63.19;100675.91;5078364;28;45520;-74
2023/05/07 06:19:57;;;;;;;;;2.33;2.33;;;;;19.71;61.90;100697.84;5078468;28;45578;-74
2023/05/07 06:22:22;;;;;;;;;2.00;2.00;;;;;19.84;62.24;100686.34;5078504;27;45507;-73
2023/05/07 06:24:48;;;;;;;;;4.00;3.00;;;;;20.09;61.97;100696.78;5075284;28;46262;-74
2023/05/07 06:27:13;;;;;;;;;2.00;2.00;;;;;20.13;60.73;100667.56;5076416;28;45469;-74
2023/05/07 06:29:39;;;;;;;;;2.00;2.00;;;;;20.79;60.14;100688.28;5076924;28;45527;-74
2023/05/07 06:32:12;;;;;;;;;4.33;4.33;;;;;23.79;53.03;100698.69;5077782;27;45622;-74
2023/05/07 06:34:39;;;;;;;;;3.00;3.00;;;;;23.53;52.81;100680.56;5075713;28;45590;-74
2023/05/07 06:37:06;;;;;;;;;4.00;3.00;;;;;24.80;49.65;100695.38;5074699;27;45594;-74
2023/05/07 06:39:32;;;;;;;;;3.00;2.00;;;;;25.24;50.14;100695.13;5076320;28;45485;-74
2023/05/07 06:41:58;;;;;;;;;2.00;2.00;;;;;27.72;42.69;100685.94;5077630;27;45415;-75
2023/05/07 06:44:23;;;;;;;;;2.00;2.00;;;;;28.71;42.77;100687.31;5077186;28;45406;-74
2023/05/07 06:46:49;;;;;;;;;3.00;2.67;;;;;29.08;40.42;100627.41;5076440;28;45452;-74
2023/05/07 06:49:15;;;;;;;;;2.33;2.33;;;;;29.52;39.49;100696.28;5077720;27;45612;-74
2023/05/07 06:51:41;;;;;;;;;3.00;3.00;;;;;28.97;40.05;100705.03;5077091;27;45610;-73
2023/05/07 06:54:07;;;;;;;;;2.00;2.00;;;;;29.58;38.42;100687.94;5072563;28;45466;-73
2023/05/07 06:56:33;;;;;;;;;2.00;2.00;;;;;30.17;37.05;100686.03;5072778;28;45527;-72
2023/05/07 06:59:00;;;;;;;;;2.00;2.00;;;;;30.62;37.69;100668.53;5077763;27;45600;-73
2023/05/07 07:01:26;;;;;;;;;3.00;2.67;;;;;31.26;34.48;100687.66;5075146;28;45441;-74
2023/05/07 07:03:51;;;;;;;;;2.00;1.00;;;;;32.61;33.35;100701.69;5077919;28;46033;-74
2023/05/07 07:06:17;;;;;;;;;0.33;0.33;;;;;33.70;30.73;100698.63;5072815;28;45417;-74
2023/05/07 07:08:43;;;;;;;;;1.67;1.33;;;;;34.75;30.23;100706.16;5077108;27;45439;-74
2023/05/07 07:11:10;;;;;;;;;1.00;1.00;;;;;35.43;28.95;100714.00;5074846;28;45472;-74
2023/05/07 07:13:35;;;;;;;;;2.33;1.00;;;;;36.05;28.18;100698.66;5077559;28;45494;-74
2023/05/07 07:16:01;;;;;;;;;0.00;0.00;;;;;36.59;27.25;100702.78;5075099;28;45579;-74
2023/05/07 07:18:27;;;;;;;;;1.00;0.67;;;;;37.15;25.81;100710.28;5075179;28;45392;-74
2023/05/07 07:20:53;;;;;;;;;0.67;0.67;;;;;37.85;26.39;100713.78;5084124;27;45557;-74
2023/05/07 07:23:19;;;;;;;;;0.00;0.00;;;;;38.80;24.41;100716.72;5072780;28;45633;-73
2023/05/07 07:25:44;;;;;;;;;0.67;0.67;;;;;38.90;22.80;100711.28;5077015;27;45542;-74
2023/05/07 07:28:12;;;;;;;;;1.00;0.00;;;;;38.93;22.95;100714.63;5076071;28;45522;-74
2023/05/07 07:30:38;;;;;;;;;1.00;1.00;;;;;38.43;23.21;100708.06;5081289;27;45593;-74
2023/05/07 07:33:05;;;;;;;;;0.00;0.00;;;;;38.69;23.22;100717.63;5076255;28;46233;-74
2023/05/07 07:35:33;;;;;;;;;0.00;0.00;;;;;39.10;22.54;100712.34;5066008;28;45389;-77
2023/05/07 07:37:59;;;;;;;;;0.67;0.67;;;;;39.39;24.29;100720.66;5061371;28;45426;-75
2023/05/07 07:40:25;;;;;;;;;0.00;0.00;;;;;38.86;23.62;100697.06;5059378;28;45430;-75
2023/05/07 07:42:51;;;;;;;;;0.00;0.00;;;;;37.15;25.65;100723.91;5047109;28;45363;-76
2023/05/07 07:45:17;;;;;;;;;0.67;0.67;;;;;36.02;27.58;100723.38;5057054;28;45378;-78
2023/05/07 07:47:42;;;;;;;;;1.00;1.00;;;;;35.67;27.32;100715.09;5039174;28;45283;-79
2023/05/07 07:50:09;;;;;;;;;1.00;1.00;;;;;34.81;28.06;100717.44;5064950;28;45284;-74
2023/05/07 07:52:34;;;;;;;;;0.00;0.00;;;;;33.67;29.56;100708.69;5062475;28;45806;-74
2023/05/07 07:55:00;;;;;;;;;1.00;0.00;;;;;32.91;30.53;100719.72;5049842;28;45553;-74
2023/05/07 07:57:26;;;;;;;;;2.00;1.00;;;;;32.35;31.84;100721.22;5055622;28;45521;-76
2023/05/07 07:59:52;;;;;;;;;1.00;0.00;;;;;31.98;32.64;100737.69;5065453;28;45431;-74
2023/05/07 08:02:17;;;;;;;;;2.67;2.67;;;;;31.51;32.83;100731.31;5053818;28;45496;-76
2023/05/07 08:04:43;;;;;;;;;2.67;2.00;;;;;33.22;30.89;100725.97;5025599;28;45436;-76
2023/05/07 08:07:12;;;;;;;;;2.00;1.67;;;;;34.23;30.00;100714.09;5053427;28;45473;-77
2023/05/07 08:09:38;;;;;;;;;2.33;1.00;;;;;35.86;27.88;100734.53;5062476;28;45414;-77
2023/05/07 08:12:07;;;;;;;;;3.33;1.00;;;;;37.44;25.03;100745.22;5061347;28;45551;-76
2023/05/07 08:14:34;;;;;;;;;1.67;1.67;;;;;37.91;24.26;100737.81;5062007;28;45445;-74
2023/05/07 08:17:00;;;;;;;;;0.00;0.00;;;;;37.93;25.85;100692.19;5055986;28;45604;-76
2023/05/07 08:19:25;;;;;;;;;1.00;0.00;;;;;38.44;24.86;100721.56;5065710;28;46595;-76
2023/05/07 08:21:51;;;;;;;;;2.00;1.00;;;;;37.05;25.30;100736.47;5062861;28;45478;-75
2023/05/07 08:24:20;;;;;;;;;1.00;0.67;;;;;36.13;26.35;100745.22;5066249;28;45665;-79
2023/05/07 08:26:46;;;;;;;;;1.33;1.33;;;;;35.23;27.74;100734.44;5061882;28;46729;-78
2023/05/07 08:29:11;;;;;;;;;1.33;1.33;;;;;34.39;28.47;100734.78;5054476;28;45473;-74
2023/05/07 08:31:39;;;;;;;;;1.00;1.00;;;;;33.29;29.99;100755.28;5038927;28;47932;-80
2023/05/07 08:34:05;;;;;;;;;1.00;1.00;;;;;32.13;31.38;100738.69;5056411;28;45469;-80
2023/05/07 08:36:31;;;;;;;;;4.00;2.00;;;;;31.10;33.63;100738.88;5075573;28;45428;-77
2023/05/07 08:38:56;;;;;;;;;2.00;2.00;;;;;30.72;34.33;100761.47;5075815;28;45556;-78
2023/05/07 08:41:22;;;;;;;;;1.33;0.67;;;;;30.43;34.39;100752.13;5076778;27;45465;-78
2023/05/07 08:43:50;;;;;;;;;2.67;2.67;;;;;29.93;35.04;100752.75;5076086;28;45507;-76
2023/05/07 08:46:20;;;;;;;;;2.00;2.00;;;;;29.32;36.26;100722.28;5076540;28;45491;-81
2023/05/07 08:48:50;;;;;;;;;2.00;2.00;;;;;29.44;36.54;100776.53;5075661;28;45703;-79
2023/05/07 08:51:19;;;;;;;;;3.33;2.33;;;;;28.69;37.10;100729.53;5074417;28;46964;-81
2023/05/07 08:53:45;;;;;;;;;3.00;3.00;;;;;28.32;38.03;100760.59;5091655;27;46078;-81
2023/05/07 08:56:11;;;;;;;;;2.67;2.67;;;;;28.64;37.31;100769.19;5075203;28;46522;-80
2023/05/07 08:58:37;;;;;;;;;3.00;2.00;;;;;28.20;37.09;100685.91;5092524;27;45548;-80
2023/05/07 09:01:08;;;;;;;;;2.00;2.00;;;;;28.64;37.41;100796.94;5074699;28;45492;-79
2023/05/07 09:03:34;;;;;;;;;3.00;3.00;;;;;28.36;37.12;100738.91;5074948;27;45483;-81
2023/05/07 09:05:59;;;;;;;;;3.00;3.00;;;;;28.25;37.29;100751.03;5075379;28;45669;-78
2023/05/07 09:08:27;;;;;;;;;4.00;3.33;;;;;28.05;38.13;100784.94;5075074;28;45811;-81
2023/05/07 09:10:56;;;;;;;;;3.00;3.00;;;;;27.94;38.42;100796.09;5073322;28;45655;-80
2023/05/07 09:13:22;;;;;;;;;2.67;2.67;;;;;27.92;38.16;100764.88;5073642;28;45425;-80
2023/05/07 09:15:49;;;;;;;;;5.00;5.00;;;;;27.98;38.22;100770.00;5070095;28;45458;-80
2023/05/07 09:18:15;;;;;;;;;4.00;4.00;;;;;28.00;37.98;100773.50;5077158;28;45579;-79
2023/05/07 09:20:41;;;;;;;;;3.33;3.33;;;;;27.42;38.22;100666.56;5077726;28;47430;-79
2023/05/07 09:23:07;;;;;;;;;4.00;4.00;;;;;27.87;38.49;100739.97;5106093;27;45475;-80
2023/05/07 09:25:34;;;;;;;;;4.00;3.00;;;;;28.07;38.70;100790.25;5077515;27;45455;-80
2023/05/07 09:28:01;;;;;;;;;4.33;4.00;;;;;27.96;38.42;100796.03;5079280;28;45401;-80
2023/05/07 09:30:29;;;;;;;;;5.00;4.67;;;;;27.67;38.45;100772.94;5079600;27;45954;-80
2023/05/07 09:32:55;;;;;;;;;4.00;3.33;;;;;27.92;38.97;100792.59;5079923;27;45790;-81
2023/05/07 09:35:27;;;;;;;;;4.00;4.00;;;;;28.09;39.09;100797.31;5080028;28;45448;-80
2023/05/07 09:37:54;;;;;;;;;3.00;3.00;;;;;27.68;39.16;100772.91;5060054;28;45305;-79
2023/05/07 09:40:24;;;;;;;;;4.00;4.00;;;;;27.70;39.68;100797.88;5058664;28;45655;-80
2023/05/07 09:42:50;;;;;;;;;3.67;3.67;;;;;27.67;39.54;100808.69;5040109;28;45706;-81
2023/05/07 09:45:21;;;;;;;;;5.00;4.00;;;;;27.54;39.82;100797.56;5025998;28;45518;-80
2023/05/07 09:47:49;;;;;;;;;5.67;4.67;;;;;27.45;39.52;100791.66;5066772;28;45657;-76
2023/05/07 09:50:16;;;;;;;;;0.00;0.00;;;;;27.26;40.33;100804.84;5049813;28;45509;-76
2023/05/07 09:52:43;;;;;;;;;3.00;3.00;;;;;27.42;40.18;100808.75;5069258;28;45240;-77
2023/05/07 09:55:10;;;;;;;;;5.33;5.00;;;;;27.23;40.71;100794.19;5067816;28;45635;-76
2023/05/07 09:57:36;;;;;;;;;5.00;5.00;;;;;26.80;41.05;100791.19;5061977;28;45385;-77
2023/05/07 10:00:06;;;;;;;;;6.00;5.00;;;;;27.36;40.56;100806.28;5057648;28;46447;-77
2023/05/07 10:02:35;;;;;;;;;6.33;5.67;;;;;27.22;40.17;100722.69;5057914;28;45298;-78
2023/05/07 10:05:01;;;;;;;;;4.33;4.33;;;;;28.19;39.89;100791.56;5023401;28;45457;-78
2023/05/07 10:07:27;;;;;;;;;6.00;5.00;;;;;28.68;38.35;100808.44;5040554;28;45570;-76
2023/05/07 10:09:54;;;;;;;;;6.33;5.33;;;;;28.47;38.67;100783.28;5053394;28;45616;-76
2023/05/07 10:12:23;;;;;;;;;8.00;7.33;;;;;28.88;38.53;100796.84;5053831;28;45748;-77
2023/05/07 10:14:52;;;;;;;;;11.67;11.00;;;;;29.34;37.94;100805.66;5058233;28;45489;-77
2023/05/07 10:17:20;;;;;;;;;5.33;5.00;;;;;29.74;37.12;100804.78;5040036;28;45450;-74
2023/05/07 10:19:46;;;;;;;;;4.67;4.67;;;;;29.87;36.94;100794.31;5049892;28;46130;-77
2023/05/07 10:22:13;;;;;;;;;7.00;6.00;;;;;30.33;36.34;100802.91;5057849;28;45538;-77
2023/05/07 10:24:39;;;;;;;;;7.33;7.33;;;;;30.82;34.69;100817.63;5057221;28;45524;-74
2023/05/07 10:27:11;;;;;;;;;7.00;6.00;;;;;31.13;34.20;100815.13;5042486;28;45506;-76
2023/05/07 10:30:22;;;;;;;;;6.00;6.00;;;;;31.24;34.84;100754.34;5038835;28;48235;-75
2023/05/07 10:32:51;;;;;;;;;6.67;5.67;;;;;31.63;33.90;100818.84;5024253;28;45473;-74
2023/05/07 10:35:31;;;;;;;;;7.67;6.67;;;;;31.48;33.84;100807.06;5076336;27;45647;-79
2023/05/07 10:37:57;;;;;;;;;5.67;5.67;;;;;31.85;33.81;100796.97;5077543;28;45739;-76
2023/05/07 10:40:24;;;;;;;;;6.00;6.00;;;;;32.23;32.82;100787.69;5061982;27;46701;-78
2023/05/07 10:42:55;;;;;;;;;5.00;5.00;;;;;32.15;33.64;100798.06;5077451;28;45594;-77
2023/05/07 10:45:22;;;;;;;;;6.00;6.00;;;;;32.64;32.81;100816.91;5076515;28;45319;-75
2023/05/07 10:48:15;;;;;;;;;4.33;4.00;;;;;32.59;32.36;100816.28;5078506;28;45533;-74
2023/05/07 10:50:45;;;;;;;;;4.67;4.33;;;;;32.18;31.93;100806.00;5076099;28;45498;-74
2023/05/07 10:53:17;;;;;;;;;4.00;3.00;;;;;32.07;31.31;100814.69;5071567;28;45409;-77
2023/05/07 10:55:47;;;;;;;;;3.67;3.00;;;;;31.70;32.50;100798.66;5067512;28;45437;-77
2023/05/07 10:58:21;;;;;;;;;3.00;2.33;;;;;32.32;31.50;100807.94;5076853;28;45386;-74
2023/05/07 11:00:52;;;;;;;;;2.33;2.00;;;;;32.57;31.54;100796.59;5078274;28;46203;-76
2023/05/07 11:03:17;;;;;;;;;2.00;2.00;;;;;32.24;31.70;100774.09;5078172;28;45381;-77
2023/05/07 11:05:43;;;;;;;;;2.00;2.00;;;;;32.74;31.85;100818.13;5076586;27;45428;-72
2023/05/07 11:08:09;;;;;;;;;2.67;1.67;;;;;32.55;31.67;100802.09;5077551;27;45349;-74
2023/05/07 11:10:56;;;;;;;;;2.00;2.00;;;;;32.52;31.75;100804.06;5077114;27;45473;-76
2023/05/07 11:13:58;;;;;;;;;3.00;2.00;;;;;32.80;31.60;100822.31;5076676;28;45448;-74
2023/05/07 11:16:26;;;;;;;;;3.00;3.00;;;;;32.82;31.73;100812.25;5066031;28;45420;-74
2023/05/07 11:18:55;;;;;;;;;2.00;2.00;;;;;32.54;32.12;100826.50;5076074;28;45545;-74
2023/05/07 11:21:48;;;;;;;;;3.00;3.00;;;;;32.07;33.05;100771.47;5074501;28;46716;-76